createdAt,value
2022-08-03T00:00:42.186Z,85.81
2022-08-03T00:01:42.193Z,86.11
2022-08-03T00:02:42.202Z,86.01
2022-08-03T00:03:42.194Z,86.81
2022-08-03T00:04:42.198Z,85.51
2022-08-03T00:06:03.847Z,86.25
2022-08-03T00:06:42.207Z,85.91
2022-08-03T00:07:42.204Z,85.11
2022-08-03T00:08:42.209Z,85.61
2022-08-03T00:09:42.208Z,85.31
2022-08-03T00:10:42.212Z,86.61
2022-08-03T00:11:42.215Z,86.31
2022-08-03T00:12:42.218Z,86.31
2022-08-03T00:13:42.219Z,86.95
2022-08-03T00:14:42.223Z,86.51
2022-08-03T00:15:42.224Z,86.21
2022-08-03T00:16:42.229Z,85.11
2022-08-03T00:17:53.350Z,84.81
2022-08-03T00:18:42.234Z,85.31
2022-08-03T00:19:42.237Z,86.31
2022-08-03T00:20:42.237Z,86.21
2022-08-03T00:21:42.242Z,86.41
2022-08-03T00:22:42.242Z,85.81
2022-08-03T00:23:52.096Z,86.81
2022-08-03T00:24:42.251Z,86.81
2022-08-03T00:25:42.250Z,86.21
2022-08-03T00:26:42.253Z,86.31
2022-08-03T00:27:42.259Z,87.21
2022-08-03T00:28:42.256Z,86.41
2022-08-03T00:30:00.043Z,86.21
2022-08-03T00:30:42.264Z,86.91
2022-08-03T00:31:51.679Z,87.01
2022-08-03T00:32:44.414Z,87.30
2022-08-03T00:33:59.118Z,86.81
2022-08-03T00:34:57.630Z,86.71
2022-08-03T00:35:50.710Z,87.21
2022-08-03T00:36:42.280Z,87.07
2022-08-03T00:37:42.285Z,87.21
2022-08-03T00:38:42.287Z,87.41
2022-08-03T00:39:42.289Z,87.51
2022-08-03T00:40:42.290Z,86.66
2022-08-03T00:41:42.294Z,85.97
2022-08-03T00:42:42.296Z,86.01
2022-08-03T00:43:42.298Z,86.27
2022-08-03T00:44:42.301Z,86.31
2022-08-03T00:45:42.301Z,86.01
2022-08-03T00:46:42.306Z,85.57
2022-08-03T00:47:42.305Z,85.31
2022-08-03T00:48:42.312Z,84.81
2022-08-03T00:49:42.446Z,84.71
2022-08-03T00:50:42.315Z,85.31
2022-08-03T00:51:42.320Z,85.21
2022-08-03T00:52:42.318Z,85.21
2022-08-03T00:53:42.323Z,85.11
2022-08-03T00:54:42.325Z,85.51
2022-08-03T00:55:42.329Z,85.11
2022-08-03T00:57:00.316Z,85.11
2022-08-03T00:57:42.329Z,84.91
2022-08-03T00:58:42.335Z,85.15
2022-08-03T00:59:42.336Z,85.61
2022-08-03T01:00:42.344Z,85.45
2022-08-03T01:01:42.467Z,86.15
2022-08-03T01:02:42.345Z,86.61
2022-08-03T01:03:42.351Z,87.05
2022-08-03T01:04:42.353Z,87.11
2022-08-03T01:05:42.353Z,87.11
2022-08-03T01:06:42.355Z,87.51
2022-08-03T01:07:42.356Z,86.81
2022-08-03T01:08:42.363Z,87.01
2022-08-03T01:09:42.364Z,86.01
2022-08-03T01:10:42.363Z,86.91
2022-08-03T01:12:01.245Z,86.31
2022-08-03T01:12:42.370Z,86.81
2022-08-03T01:14:01.462Z,86.21
2022-08-03T01:14:42.375Z,85.81
2022-08-03T01:15:42.377Z,85.97
2022-08-03T01:16:42.429Z,86.01
2022-08-03T01:17:42.384Z,85.47
2022-08-03T01:18:42.389Z,85.37
2022-08-03T01:19:42.387Z,85.47
2022-08-03T01:20:42.393Z,85.47
2022-08-03T01:21:42.391Z,86.36
2022-08-03T01:22:42.397Z,85.77
2022-08-03T01:23:42.396Z,85.97
2022-08-03T01:24:42.399Z,86.27
2022-08-03T01:25:42.403Z,85.27
2022-08-03T01:26:42.406Z,85.37
2022-08-03T01:27:42.407Z,85.67
2022-08-03T01:28:42.409Z,84.97
2022-08-03T01:29:42.408Z,84.87
2022-08-03T01:30:42.413Z,86.17
2022-08-03T01:32:52.391Z,85.57
2022-08-03T01:33:02.452Z,85.47
2022-08-03T01:33:42.422Z,84.47
2022-08-03T01:34:42.426Z,85.17
2022-08-03T01:35:42.429Z,84.67
2022-08-03T01:36:42.433Z,84.57
2022-08-03T01:37:42.430Z,84.77
2022-08-03T01:38:42.432Z,85.13
2022-08-03T01:39:42.439Z,84.67
2022-08-03T01:40:42.446Z,84.67
2022-08-03T01:41:42.452Z,84.47
2022-08-03T01:42:42.445Z,85.03
2022-08-03T01:44:28.643Z,84.37
2022-08-03T01:44:42.454Z,84.33
2022-08-03T01:45:42.453Z,85.23
2022-08-03T01:46:47.686Z,84.73
2022-08-03T01:47:42.456Z,85.13
2022-08-03T01:48:42.460Z,85.63
2022-08-03T01:49:42.536Z,85.03
2022-08-03T01:50:42.469Z,84.83
2022-08-03T01:52:00.854Z,85.33
2022-08-03T01:52:42.471Z,85.03
2022-08-03T01:53:42.469Z,84.83
2022-08-03T01:54:42.473Z,85.72
2022-08-03T01:55:42.477Z,85.13
2022-08-03T01:56:42.480Z,85.42
2022-08-03T01:58:05.741Z,84.83
2022-08-03T01:58:42.491Z,84.93
2022-08-03T01:59:42.487Z,84.83
2022-08-03T02:00:42.533Z,84.93
2022-08-03T02:02:16.076Z,85.53
2022-08-03T02:02:43.131Z,84.83
2022-08-03T02:03:59.575Z,85.23
2022-08-03T02:04:42.501Z,84.53
2022-08-03T02:05:42.502Z,84.53
2022-08-03T02:07:01.077Z,84.73
2022-08-03T02:07:42.506Z,84.23
2022-08-03T02:08:42.511Z,84.63
2022-08-03T02:09:42.509Z,85.63
2022-08-03T02:10:42.512Z,84.23
2022-08-03T02:11:42.514Z,84.73
2022-08-03T02:12:43.441Z,85.33
2022-08-03T02:13:42.522Z,85.72
2022-08-03T02:14:42.526Z,85.03
2022-08-03T02:15:42.522Z,85.83
2022-08-03T02:16:42.577Z,85.03
2022-08-03T02:17:42.530Z,84.83
2022-08-03T02:18:42.540Z,85.03
2022-08-03T02:19:42.536Z,85.13
2022-08-03T02:20:42.538Z,85.33
2022-08-03T02:21:56.621Z,84.93
2022-08-03T02:22:42.551Z,84.63
2022-08-03T02:23:42.554Z,85.13
2022-08-03T02:24:42.553Z,85.72
2022-08-03T02:25:42.551Z,85.53
2022-08-03T02:26:42.554Z,85.53
2022-08-03T02:27:43.791Z,86.43
2022-08-03T02:28:42.562Z,86.13
2022-08-03T02:29:42.565Z,87.62
2022-08-03T02:30:42.563Z,85.93
2022-08-03T02:31:42.567Z,85.53
2022-08-03T02:32:42.569Z,87.42
2022-08-03T02:33:42.571Z,87.02
2022-08-03T02:34:42.575Z,86.82
2022-08-03T02:35:42.573Z,85.72
2022-08-03T02:36:42.580Z,85.63
2022-08-03T02:37:42.940Z,85.42
2022-08-03T02:38:42.583Z,85.03
2022-08-03T02:39:42.581Z,85.93
2022-08-03T02:40:42.586Z,86.33
2022-08-03T02:41:42.592Z,86.72
2022-08-03T02:42:42.590Z,86.43
2022-08-03T02:44:05.690Z,87.82
2022-08-03T02:44:42.599Z,86.72
2022-08-03T02:45:45.498Z,86.72
2022-08-03T02:46:42.604Z,86.63
2022-08-03T02:47:53.612Z,86.13
2022-08-03T02:48:42.606Z,86.22
2022-08-03T02:49:51.414Z,87.62
2022-08-03T02:50:42.619Z,86.93
2022-08-03T02:51:42.616Z,86.82
2022-08-03T02:52:42.616Z,87.32
2022-08-03T02:53:42.623Z,86.72
2022-08-03T02:54:42.620Z,86.93
2022-08-03T02:55:45.661Z,87.23
2022-08-03T02:56:42.629Z,87.32
2022-08-03T02:57:42.631Z,87.23
2022-08-03T02:58:42.632Z,86.72
2022-08-03T02:59:42.636Z,86.93
2022-08-03T03:00:42.679Z,87.48
2022-08-03T03:01:42.643Z,86.43
2022-08-03T03:02:43.938Z,87.23
2022-08-03T03:03:44.710Z,87.52
2022-08-03T03:05:52.044Z,87.73
2022-08-03T03:05:53.360Z,88.32
2022-08-03T03:06:42.655Z,88.02
2022-08-03T03:07:51.242Z,87.23
2022-08-03T03:08:42.659Z,87.42
2022-08-03T03:09:43.307Z,86.52
2022-08-03T03:10:42.662Z,86.52
2022-08-03T03:11:42.660Z,86.33
2022-08-03T03:12:42.670Z,87.02
2022-08-03T03:13:42.673Z,87.42
2022-08-03T03:14:42.671Z,86.82
2022-08-03T03:15:42.672Z,86.29
2022-08-03T03:16:42.729Z,87.32
2022-08-03T03:17:42.678Z,86.82
2022-08-03T03:18:42.679Z,87.12
2022-08-03T03:19:42.687Z,86.38
2022-08-03T03:20:42.689Z,86.63
2022-08-03T03:21:42.695Z,87.88
2022-08-03T03:22:45.186Z,85.93
2022-08-03T03:23:42.696Z,86.68
2022-08-03T03:24:42.695Z,86.98
2022-08-03T03:25:42.697Z,86.38
2022-08-03T03:26:42.703Z,86.68
2022-08-03T03:27:42.708Z,86.98
2022-08-03T03:28:42.708Z,86.38
2022-08-03T03:29:42.708Z,86.88
2022-08-03T03:30:42.709Z,86.79
2022-08-03T03:31:42.713Z,87.02
2022-08-03T03:32:42.714Z,86.98
2022-08-03T03:33:42.721Z,87.58
2022-08-03T03:34:42.731Z,87.78
2022-08-03T03:35:42.726Z,86.98
2022-08-03T03:36:42.729Z,87.58
2022-08-03T03:37:42.734Z,87.28
2022-08-03T03:38:42.730Z,87.18
2022-08-03T03:39:42.734Z,87.82
2022-08-03T03:40:42.739Z,87.02
2022-08-03T03:41:42.747Z,87.48
2022-08-03T03:42:42.742Z,88.02
2022-08-03T03:43:42.746Z,87.58
2022-08-03T03:44:42.747Z,88.18
2022-08-03T03:45:42.750Z,87.62
2022-08-03T03:46:42.757Z,87.73
2022-08-03T03:47:42.758Z,88.22
2022-08-03T03:48:42.757Z,87.62
2022-08-03T03:49:42.761Z,87.12
2022-08-03T03:50:42.765Z,87.37
2022-08-03T03:51:42.770Z,87.23
2022-08-03T03:52:42.768Z,87.16
2022-08-03T03:53:42.773Z,87.46
2022-08-03T03:54:42.771Z,87.27
2022-08-03T03:55:57.825Z,87.96
2022-08-03T03:56:42.777Z,87.46
2022-08-03T03:57:42.784Z,87.76
2022-08-03T03:58:42.780Z,87.87
2022-08-03T03:59:42.793Z,87.66
2022-08-03T04:00:42.807Z,87.61
2022-08-03T04:01:42.787Z,88.01
2022-08-03T04:02:42.794Z,87.41
2022-08-03T04:03:42.795Z,87.57
2022-08-03T04:04:42.796Z,87.11
2022-08-03T04:05:45.878Z,87.41
2022-08-03T04:06:42.797Z,87.91
2022-08-03T04:07:42.803Z,87.91
2022-08-03T04:08:42.805Z,87.96
2022-08-03T04:09:42.807Z,87.91
2022-08-03T04:10:42.815Z,87.91
2022-08-03T04:11:42.815Z,88.01
2022-08-03T04:12:50.497Z,87.91
2022-08-03T04:13:42.817Z,87.87
2022-08-03T04:14:42.820Z,87.91
2022-08-03T04:15:42.821Z,88.10
2022-08-03T04:16:43.959Z,87.91
2022-08-03T04:17:42.826Z,88.10
2022-08-03T04:18:42.832Z,88.01
2022-08-03T04:19:42.831Z,88.40
2022-08-03T04:20:42.839Z,88.21
2022-08-03T04:21:42.836Z,88.01
2022-08-03T04:22:42.842Z,87.76
2022-08-03T04:23:42.844Z,88.10
2022-08-03T04:24:42.842Z,88.31
2022-08-03T04:25:42.851Z,88.90
2022-08-03T04:26:42.847Z,89.11
2022-08-03T04:27:42.855Z,89.11
2022-08-03T04:28:42.856Z,89.11
2022-08-03T04:29:44.795Z,89.61
2022-08-03T04:30:42.856Z,90.00
2022-08-03T04:31:42.867Z,89.90
2022-08-03T04:32:45.849Z,90.70
2022-08-03T04:33:42.870Z,90.20
2022-08-03T04:34:42.874Z,89.81
2022-08-03T04:36:01.276Z,89.45
2022-08-03T04:36:42.876Z,89.90
2022-08-03T04:37:42.875Z,90.50
2022-08-03T04:38:42.884Z,89.01
2022-08-03T04:39:42.882Z,88.51
2022-08-03T04:40:42.883Z,88.71
2022-08-03T04:42:08.122Z,89.70
2022-08-03T04:42:42.890Z,89.11
2022-08-03T04:43:42.895Z,89.70
2022-08-03T04:44:42.894Z,89.51
2022-08-03T04:45:42.896Z,89.51
2022-08-03T04:46:46.750Z,89.20
2022-08-03T04:47:43.103Z,89.31
2022-08-03T04:48:44.712Z,89.51
2022-08-03T04:49:42.953Z,89.51
2022-08-03T04:50:42.918Z,89.16
2022-08-03T04:51:42.910Z,89.11
2022-08-03T04:52:42.915Z,88.81
2022-08-03T04:53:42.913Z,88.51
2022-08-03T04:54:42.916Z,88.76
2022-08-03T04:55:42.929Z,88.67
2022-08-03T04:56:42.919Z,89.06
2022-08-03T04:57:42.929Z,88.67
2022-08-03T04:58:42.927Z,88.56
2022-08-03T04:59:42.931Z,87.87
2022-08-03T05:00:42.934Z,88.46
2022-08-03T05:01:43.010Z,87.76
2022-08-03T05:02:42.938Z,87.87
2022-08-03T05:03:42.940Z,87.57
2022-08-03T05:04:42.945Z,87.57
2022-08-03T05:05:49.715Z,87.73
2022-08-03T05:06:48.137Z,86.87
2022-08-03T05:07:42.949Z,87.02
2022-08-03T05:08:46.985Z,87.82
2022-08-03T05:09:52.473Z,87.52
2022-08-03T05:10:42.963Z,86.82
2022-08-03T05:11:42.964Z,87.23
2022-08-03T05:12:42.963Z,87.12
2022-08-03T05:13:42.968Z,86.33
2022-08-03T05:14:42.966Z,86.13
2022-08-03T05:15:43.422Z,86.08
2022-08-03T05:16:42.969Z,86.29
2022-08-03T05:17:43.039Z,85.88
2022-08-03T05:18:42.974Z,86.08
2022-08-03T05:19:42.978Z,86.19
2022-08-03T05:20:42.983Z,86.08
2022-08-03T05:21:51.895Z,85.78
2022-08-03T05:22:42.984Z,85.49
2022-08-03T05:23:42.989Z,85.69
2022-08-03T05:24:42.988Z,85.19
2022-08-03T05:25:49.876Z,86.24
2022-08-03T05:26:42.992Z,86.84
2022-08-03T05:27:42.998Z,86.79
2022-08-03T05:28:50.015Z,86.04
2022-08-03T05:29:43.003Z,85.74
2022-08-03T05:30:43.007Z,86.04
2022-08-03T05:31:43.007Z,85.85
2022-08-03T05:32:43.013Z,85.85
2022-08-03T05:33:43.012Z,85.44
2022-08-03T05:34:43.017Z,84.95
2022-08-03T05:36:01.806Z,85.74
2022-08-03T05:36:43.024Z,85.25
2022-08-03T05:37:54.509Z,85.50
2022-08-03T05:38:43.025Z,85.00
2022-08-03T05:39:43.029Z,84.41
2022-08-03T05:40:56.675Z,85.00
2022-08-03T05:41:43.031Z,84.11
2022-08-03T05:42:43.036Z,84.11
2022-08-03T05:43:43.036Z,84.61
2022-08-03T05:44:43.039Z,83.81
2022-08-03T05:45:43.040Z,84.47
2022-08-03T05:46:43.063Z,83.37
2022-08-03T05:47:43.047Z,83.47
2022-08-03T05:48:43.050Z,82.87
2022-08-03T05:49:43.101Z,83.07
2022-08-03T05:50:43.074Z,82.87
2022-08-03T05:51:43.060Z,82.78
2022-08-03T05:52:43.059Z,82.78
2022-08-03T05:53:43.063Z,82.34
2022-08-03T05:54:56.042Z,83.33
2022-08-03T05:55:43.066Z,82.24
2022-08-03T05:56:43.071Z,82.24
2022-08-03T05:57:43.071Z,82.43
2022-08-03T05:58:43.077Z,82.50
2022-08-03T05:59:54.675Z,83.59
2022-08-03T06:00:43.080Z,82.70
2022-08-03T06:01:43.126Z,81.80
2022-08-03T06:02:43.083Z,82.29
2022-08-03T06:03:43.089Z,81.50
2022-08-03T06:04:43.089Z,82.26
2022-08-03T06:05:43.312Z,81.76
2022-08-03T06:06:43.101Z,81.66
2022-08-03T06:07:43.096Z,82.46
2022-08-03T06:08:43.103Z,81.76
2022-08-03T06:10:36.657Z,81.06
2022-08-03T06:10:43.110Z,80.83
2022-08-03T06:11:43.109Z,81.62
2022-08-03T06:12:43.110Z,81.23
2022-08-03T06:13:43.112Z,81.02
2022-08-03T06:14:43.113Z,80.79
2022-08-03T06:15:43.116Z,80.29
2022-08-03T06:16:43.122Z,80.39
2022-08-03T06:17:43.124Z,81.09
2022-08-03T06:18:43.127Z,80.79
2022-08-03T06:19:43.136Z,80.45
2022-08-03T06:20:43.130Z,80.05
2022-08-03T06:21:43.155Z,79.16
2022-08-03T06:22:50.559Z,79.26
2022-08-03T06:23:53.513Z,79.85
2022-08-03T06:24:48.185Z,80.45
2022-08-03T06:25:43.142Z,80.51
2022-08-03T06:26:43.145Z,81.01
2022-08-03T06:27:43.148Z,79.52
2022-08-03T06:28:51.793Z,80.61
2022-08-03T06:29:43.161Z,79.22
2022-08-03T06:30:43.161Z,77.69
2022-08-03T06:31:43.165Z,77.14
2022-08-03T06:32:43.167Z,78.09
2022-08-03T06:34:22.848Z,77.69
2022-08-03T06:34:43.171Z,77.66
2022-08-03T06:35:43.176Z,76.97
2022-08-03T06:36:43.182Z,78.05
2022-08-03T06:37:43.175Z,76.14
2022-08-03T06:38:43.187Z,73.25
2022-08-03T06:39:43.185Z,76.49
2022-08-03T06:40:43.187Z,75.01
2022-08-03T06:41:44.688Z,76.10
2022-08-03T06:42:43.193Z,75.70
2022-08-03T06:44:03.670Z,74.80
2022-08-03T06:44:43.200Z,74.57
2022-08-03T06:45:43.208Z,75.01
2022-08-03T06:46:43.205Z,74.38
2022-08-03T06:47:43.209Z,72.66
2022-08-03T06:48:43.208Z,72.56
2022-08-03T06:49:43.379Z,73.65
2022-08-03T06:50:43.223Z,71.97
2022-08-03T06:52:03.602Z,72.66
2022-08-03T06:52:43.219Z,71.93
2022-08-03T06:53:43.223Z,73.51
2022-08-03T06:54:43.228Z,73.58
2022-08-03T06:55:43.229Z,71.40
2022-08-03T06:56:43.237Z,71.40
2022-08-03T06:57:43.237Z,71.50
2022-08-03T06:58:43.241Z,72.16
2022-08-03T07:00:09.958Z,71.37
2022-08-03T07:00:43.246Z,70.38
2022-08-03T07:01:43.361Z,71.47
2022-08-03T07:02:43.252Z,71.23
2022-08-03T07:03:52.492Z,69.65
2022-08-03T07:04:43.260Z,69.56
2022-08-03T07:05:43.262Z,69.35
2022-08-03T07:06:43.267Z,69.62
2022-08-03T07:07:43.271Z,69.62
2022-08-03T07:08:43.272Z,68.63
2022-08-03T07:09:43.272Z,69.02
2022-08-03T07:10:43.278Z,68.33
2022-08-03T07:11:43.282Z,67.22
2022-08-03T07:12:52.637Z,68.89
2022-08-03T07:13:43.290Z,66.42
2022-08-03T07:14:43.296Z,68.27
2022-08-03T07:15:55.442Z,68.07
2022-08-03T07:16:43.298Z,69.06
2022-08-03T07:17:43.309Z,68.13
2022-08-03T07:18:43.306Z,68.83
2022-08-03T07:19:43.310Z,68.43
2022-08-03T07:20:43.319Z,67.15
2022-08-03T07:21:43.317Z,67.94
2022-08-03T07:22:43.314Z,69.22
2022-08-03T07:23:43.319Z,66.96
2022-08-03T07:24:43.328Z,66.43
2022-08-03T07:25:43.327Z,66.16
2022-08-03T07:26:43.333Z,66.16
2022-08-03T07:27:43.339Z,65.44
2022-08-03T07:28:43.342Z,66.33
2022-08-03T07:29:43.346Z,66.79
2022-08-03T07:30:43.359Z,66.30
2022-08-03T07:31:43.356Z,68.76
2022-08-03T07:32:50.244Z,68.04
2022-08-03T07:33:43.356Z,65.38
2022-08-03T07:34:43.365Z,65.08
2022-08-03T07:35:43.374Z,65.18
2022-08-03T07:36:43.371Z,65.87
2022-08-03T07:37:46.133Z,65.84
2022-08-03T07:38:43.378Z,64.36
2022-08-03T07:39:43.382Z,65.05
2022-08-03T07:40:46.328Z,65.84
2022-08-03T07:41:43.387Z,64.76
2022-08-03T07:42:43.396Z,65.05
2022-08-03T07:43:43.415Z,66.00
2022-08-03T07:44:43.406Z,64.76
2022-08-03T07:45:43.403Z,66.07
2022-08-03T07:46:43.411Z,66.76
2022-08-03T07:47:43.414Z,67.15
2022-08-03T07:48:43.418Z,65.28
2022-08-03T07:49:43.458Z,65.68
2022-08-03T07:50:43.426Z,66.17
2022-08-03T07:51:43.428Z,64.89
2022-08-03T07:52:43.436Z,64.50
2022-08-03T07:53:47.440Z,63.42
2022-08-03T07:54:43.443Z,64.01
2022-08-03T07:55:43.444Z,64.66
2022-08-03T07:56:43.456Z,63.88
2022-08-03T07:57:43.458Z,64.07
2022-08-03T07:58:43.473Z,64.56
2022-08-03T08:00:01.427Z,62.90
2022-08-03T08:00:43.471Z,63.29
2022-08-03T08:01:43.531Z,62.18
2022-08-03T08:02:43.484Z,63.26
2022-08-03T08:03:53.516Z,61.88
2022-08-03T08:04:43.493Z,62.76
2022-08-03T08:05:43.496Z,64.40
2022-08-03T08:06:43.493Z,62.96
2022-08-03T08:07:43.504Z,64.89
2022-08-03T08:08:43.503Z,64.01
2022-08-03T08:09:43.510Z,62.15
2022-08-03T08:10:57.739Z,62.24
2022-08-03T08:11:43.524Z,63.29
2022-08-03T08:12:43.526Z,61.82
2022-08-03T08:13:43.527Z,62.15
2022-08-03T08:14:43.536Z,60.74
2022-08-03T08:15:43.682Z,61.23
2022-08-03T08:16:43.552Z,60.45
2022-08-03T08:17:43.543Z,60.84
2022-08-03T08:18:43.561Z,60.25
2022-08-03T08:19:47.525Z,62.21
2022-08-03T08:20:43.572Z,62.48
2022-08-03T08:21:53.958Z,59.34
2022-08-03T08:22:43.576Z,59.47
2022-08-03T08:23:48.626Z,62.57
2022-08-03T08:24:43.584Z,60.03
2022-08-03T08:25:43.609Z,61.99
2022-08-03T08:26:43.596Z,60.29
2022-08-03T08:28:31.516Z,61.18
2022-08-03T08:28:43.603Z,61.83
2022-08-03T08:29:47.948Z,59.97
2022-08-03T08:30:43.617Z,60.65
2022-08-03T08:31:43.618Z,58.92
2022-08-03T08:32:43.625Z,58.53
2022-08-03T08:34:12.530Z,58.43
2022-08-03T08:34:43.637Z,59.58
2022-08-03T08:35:43.660Z,58.30
2022-08-03T08:36:43.649Z,58.30
2022-08-03T08:37:43.648Z,58.50
2022-08-03T08:38:43.662Z,58.62
2022-08-03T08:39:43.681Z,59.80
2022-08-03T08:40:43.668Z,58.33
2022-08-03T08:41:45.779Z,60.26
2022-08-03T08:42:57.563Z,60.65
2022-08-03T08:43:43.689Z,61.02
2022-08-03T08:44:43.692Z,61.60
2022-08-03T08:45:43.695Z,61.70
2022-08-03T08:46:43.698Z,60.03
2022-08-03T08:47:51.544Z,58.76
2022-08-03T08:48:43.715Z,60.60
2022-08-03T08:49:58.235Z,59.91
2022-08-03T08:50:43.722Z,59.03
2022-08-03T08:51:59.004Z,58.64
2022-08-03T08:52:43.733Z,60.21
2022-08-03T08:53:43.738Z,60.17
2022-08-03T08:54:43.742Z,57.95
2022-08-03T08:55:59.548Z,58.70
2022-08-03T08:56:43.764Z,58.51
2022-08-03T08:57:43.762Z,57.43
2022-08-03T08:58:43.770Z,57.70
2022-08-03T08:59:48.454Z,55.96
2022-08-03T09:00:43.811Z,57.50
2022-08-03T09:01:43.816Z,57.60
2022-08-03T09:02:43.794Z,56.33
2022-08-03T09:03:43.800Z,56.33
2022-08-03T09:04:43.804Z,56.23
2022-08-03T09:05:55.819Z,56.23
2022-08-03T09:06:58.589Z,57.79
2022-08-03T09:07:43.831Z,55.74
2022-08-03T09:08:43.832Z,56.13
2022-08-03T09:10:08.472Z,57.60
2022-08-03T09:10:43.850Z,56.62
2022-08-03T09:11:54.551Z,55.91
2022-08-03T09:12:43.855Z,54.35
2022-08-03T09:13:43.864Z,56.01
2022-08-03T09:15:00.907Z,55.52
2022-08-03T09:15:53.334Z,55.74
2022-08-03T09:16:43.886Z,55.71
2022-08-03T09:17:46.504Z,55.81
2022-08-03T09:18:43.904Z,57.25
2022-08-03T09:19:43.898Z,56.18
2022-08-03T09:20:43.905Z,58.59
2022-08-03T09:21:43.914Z,55.96
2022-08-03T09:22:43.923Z,58.50
2022-08-03T09:24:00.556Z,54.69
2022-08-03T09:24:43.936Z,55.27
2022-08-03T09:25:43.941Z,55.76
2022-08-03T09:26:43.945Z,56.25
2022-08-03T09:27:43.952Z,54.79
2022-08-03T09:29:01.558Z,54.22
2022-08-03T09:29:43.963Z,54.91
2022-08-03T09:30:43.975Z,55.86
2022-08-03T09:31:44.546Z,54.00
2022-08-03T09:32:43.996Z,53.91
2022-08-03T09:33:43.991Z,54.22
2022-08-03T09:34:43.999Z,55.96
2022-08-03T09:35:53.678Z,55.66
2022-08-03T09:36:44.020Z,54.39
2022-08-03T09:38:12.584Z,55.24
2022-08-03T09:38:44.035Z,54.30
2022-08-03T09:39:44.035Z,56.51
2022-08-03T09:40:44.044Z,55.83
2022-08-03T09:41:44.047Z,55.44
2022-08-03T09:42:44.065Z,57.56
2022-08-03T09:43:44.061Z,58.44
2022-08-03T09:44:44.074Z,57.85
2022-08-03T09:45:44.075Z,56.38
2022-08-03T09:46:44.086Z,55.41
2022-08-03T09:47:44.957Z,54.14
2022-08-03T09:48:44.102Z,56.29
2022-08-03T09:49:44.175Z,54.73
2022-08-03T09:50:58.440Z,53.46
2022-08-03T09:52:32.221Z,54.14
2022-08-03T09:52:50.199Z,54.44
2022-08-03T09:53:58.819Z,53.27
2022-08-03T09:54:44.157Z,53.29
2022-08-03T09:56:33.372Z,54.07
2022-08-03T09:56:44.158Z,54.73
2022-08-03T09:57:44.161Z,54.83
2022-08-03T09:58:44.174Z,55.41
2022-08-03T09:59:44.177Z,55.71
2022-08-03T10:00:44.267Z,55.29
2022-08-03T10:01:44.327Z,54.50
2022-08-03T10:02:44.203Z,52.66
2022-08-03T10:04:04.343Z,53.14
2022-08-03T10:04:44.216Z,54.21
2022-08-03T10:05:44.223Z,54.60
2022-08-03T10:06:44.233Z,53.14
2022-08-03T10:07:46.159Z,55.68
2022-08-03T10:08:44.247Z,55.19
2022-08-03T10:09:44.256Z,55.65
2022-08-03T10:10:44.260Z,56.04
2022-08-03T10:11:44.268Z,53.89
2022-08-03T10:12:44.277Z,54.48
2022-08-03T10:13:44.285Z,52.92
2022-08-03T10:14:44.294Z,53.31
2022-08-03T10:16:22.644Z,53.58
2022-08-03T10:16:44.312Z,53.48
2022-08-03T10:17:44.314Z,53.28
2022-08-03T10:18:44.330Z,52.50
2022-08-03T10:19:44.416Z,52.70
2022-08-03T10:20:44.342Z,52.70
2022-08-03T10:21:44.348Z,55.52
2022-08-03T10:22:44.359Z,52.40
2022-08-03T10:23:44.363Z,53.97
2022-08-03T10:24:44.374Z,52.99
2022-08-03T10:25:44.382Z,53.28
2022-08-03T10:26:49.767Z,53.09
2022-08-03T10:27:44.400Z,51.14
2022-08-03T10:28:45.501Z,52.40
2022-08-03T10:29:44.411Z,52.99
2022-08-03T10:30:44.422Z,53.09
2022-08-03T10:31:57.260Z,52.48
2022-08-03T10:32:44.439Z,50.51
2022-08-03T10:33:51.764Z,53.14
2022-08-03T10:34:44.869Z,51.94
2022-08-03T10:35:44.461Z,53.99
2022-08-03T10:36:44.476Z,55.44
2022-08-03T10:37:56.440Z,53.20
2022-08-03T10:38:44.488Z,53.79
2022-08-03T10:39:44.491Z,52.33
2022-08-03T10:40:54.671Z,50.38
2022-08-03T10:41:44.512Z,52.82
2022-08-03T10:42:44.522Z,51.75
2022-08-03T10:43:44.527Z,52.20
2022-08-03T10:44:44.543Z,48.79
2022-08-03T10:45:44.547Z,45.41
2022-08-03T10:46:45.316Z,47.72
2022-08-03T10:47:44.564Z,46.79
2022-08-03T10:48:44.575Z,42.73
2022-08-03T10:49:44.608Z,45.09
2022-08-03T10:50:44.601Z,42.27
2022-08-03T10:51:44.606Z,40.54
2022-08-03T10:52:49.100Z,40.83
2022-08-03T10:53:54.804Z,40.64
2022-08-03T10:54:44.645Z,40.25
2022-08-03T10:55:44.659Z,40.69
2022-08-03T10:56:49.741Z,39.43
2022-08-03T10:57:45.068Z,40.15
2022-08-03T10:58:57.755Z,41.35
2022-08-03T10:59:44.708Z,41.79
2022-08-03T11:00:44.772Z,39.46
2022-08-03T11:02:00.164Z,40.30
2022-08-03T11:02:44.750Z,37.71
2022-08-03T11:03:44.765Z,38.56
2022-08-03T11:04:44.795Z,38.66
2022-08-03T11:05:44.799Z,37.48
2022-08-03T11:06:44.811Z,38.07
2022-08-03T11:07:44.827Z,37.76
2022-08-03T11:08:44.845Z,37.76
2022-08-03T11:09:44.863Z,36.91
2022-08-03T11:10:44.878Z,38.43
2022-08-03T11:11:44.894Z,39.45
2022-08-03T11:12:44.914Z,37.02
2022-08-03T11:13:44.928Z,37.44
2022-08-03T11:14:44.962Z,37.92
2022-08-03T11:15:44.961Z,37.61
2022-08-03T11:16:49.728Z,38.37
2022-08-03T11:17:45.868Z,37.40
2022-08-03T11:18:45.018Z,37.71
2022-08-03T11:19:56.466Z,39.23
2022-08-03T11:20:45.056Z,38.35
2022-08-03T11:21:45.076Z,37.38
2022-08-03T11:22:45.087Z,40.69
2022-08-03T11:24:05.558Z,39.25
2022-08-03T11:24:45.126Z,40.34
2022-08-03T11:25:55.021Z,38.90
2022-08-03T11:26:45.167Z,39.36
2022-08-03T11:27:45.187Z,37.55
2022-08-03T11:28:45.204Z,37.54
2022-08-03T11:29:45.231Z,39.98
2022-08-03T11:30:45.247Z,38.18
2022-08-03T11:31:50.160Z,40.72
2022-08-03T11:32:46.735Z,39.36
2022-08-03T11:33:45.301Z,37.55
2022-08-03T11:34:45.323Z,36.59
2022-08-03T11:35:45.344Z,37.54
2022-08-03T11:36:45.361Z,39.07
2022-08-03T11:38:03.517Z,36.65
2022-08-03T11:38:45.410Z,35.81
2022-08-03T11:39:45.426Z,37.65
2022-08-03T11:40:45.447Z,37.76
2022-08-03T11:41:45.558Z,36.93
2022-08-03T11:42:45.487Z,36.58
2022-08-03T11:43:45.535Z,36.02
2022-08-03T11:44:47.582Z,37.74
2022-08-03T11:45:45.550Z,36.83
2022-08-03T11:46:45.567Z,36.98
2022-08-03T11:47:51.082Z,37.84
2022-08-03T11:48:45.610Z,37.29
2022-08-03T11:49:45.629Z,37.74
2022-08-03T11:50:45.650Z,39.42
2022-08-03T11:51:45.674Z,36.77
2022-08-03T11:52:45.690Z,37.73
2022-08-03T11:53:45.712Z,36.66
2022-08-03T11:54:45.733Z,37.73
2022-08-03T11:55:45.753Z,37.92
2022-08-03T11:56:45.776Z,37.76
2022-08-03T11:59:00.899Z,41.00
2022-08-03T11:59:11.043Z,40.51
2022-08-03T11:59:45.836Z,39.06
2022-08-03T12:00:45.857Z,38.64
2022-08-03T12:01:45.882Z,36.64
2022-08-03T12:02:45.931Z,37.80
2022-08-03T12:03:46.053Z,36.96
2022-08-03T12:04:45.945Z,39.44
2022-08-03T12:05:51.006Z,38.66
2022-08-03T12:06:47.375Z,37.40
2022-08-03T12:08:03.311Z,40.62
2022-08-03T12:08:46.028Z,37.55
2022-08-03T12:09:46.043Z,36.22
2022-08-03T12:10:46.069Z,37.21
2022-08-03T12:11:52.186Z,37.54
2022-08-03T12:12:46.835Z,38.01
2022-08-03T12:14:45.214Z,38.10
2022-08-03T12:14:51.875Z,36.81
2022-08-03T12:15:46.163Z,38.17
2022-08-03T12:16:46.195Z,39.39
2022-08-03T12:17:46.218Z,39.12
2022-08-03T12:18:46.234Z,38.47
2022-08-03T12:19:46.256Z,39.35
2022-08-03T12:20:46.274Z,37.85
2022-08-03T12:21:56.956Z,38.89
2022-08-03T12:22:46.314Z,38.53
2022-08-03T12:23:46.338Z,39.20
2022-08-03T12:24:47.035Z,40.15
2022-08-03T12:25:46.380Z,40.99
2022-08-03T12:26:58.372Z,39.37
2022-08-03T12:27:46.419Z,40.30
2022-08-03T12:28:49.579Z,40.01
2022-08-03T12:29:58.412Z,39.54
2022-08-03T12:30:46.627Z,41.93
2022-08-03T12:31:46.502Z,42.60
2022-08-03T12:32:46.530Z,38.60
2022-08-03T12:33:46.644Z,38.62
2022-08-03T12:34:47.390Z,39.50
2022-08-03T12:35:52.135Z,40.75
2022-08-03T12:36:46.607Z,44.09
2022-08-03T12:37:46.626Z,41.61
2022-08-03T12:38:46.644Z,41.58
2022-08-03T12:40:01.626Z,41.20
2022-08-03T12:40:46.686Z,41.01
2022-08-03T12:41:46.719Z,38.83
2022-08-03T12:42:46.729Z,41.89
2022-08-03T12:43:46.746Z,41.87
2022-08-03T12:44:46.765Z,40.75
2022-08-03T12:45:46.787Z,41.61
2022-08-03T12:46:48.120Z,42.08
2022-08-03T12:47:46.823Z,40.82
2022-08-03T12:48:46.844Z,43.12
2022-08-03T12:49:46.873Z,42.76
2022-08-03T12:50:46.883Z,44.48
2022-08-03T12:51:46.899Z,41.41
2022-08-03T12:52:46.917Z,44.69